sensor_id;sensor_type;location;lat;lon;timestamp;pressure;altitude;pressure_sealevel;temperature;humidity
32492;BME280;20605;49.742;18.802;2023-02-28T00:00:13;98892.70;;;-0.57;100.00
32492;BME280;20605;49.742;18.802;2023-02-28T00:02:41;98896.48;;;-0.56;100.00
32492;BME280;20605;49.742;18.802;2023-02-28T00:05:08;98895.30;;;-0.55;100.00
32492;BME280;20605;49.742;18.802;2023-02-28T00:07:34;98894.41;;;-0.57;100.00
32492;BME280;20605;49.742;18.802;2023-02-28T00:10:01;98896.27;;;-0.57;100.00
32492;BME280;20605;49.742;18.802;2023-02-28T00:12:27;98899.52;;;-0.57;100.00
32492;BME280;20605;49.742;18.802;2023-02-28T00:14:53;98895.77;;;-0.57;100.00
32492;BME280;20605;49.742;18.802;2023-02-28T00:17:19;98898.98;;;-0.57;100.00
32492;BME280;20605;49.742;18.802;2023-02-28T00:19:51;98902.17;;;-0.65;100.00
32492;BME280;20605;49.742;18.802;2023-02-28T00:22:18;98902.80;;;-0.72;100.00
32492;BME280;20605;49.742;18.802;2023-02-28T00:24:45;98902.98;;;-0.78;100.00
32492;BME280;20605;49.742;18.802;2023-02-28T00:27:11;98904.79;;;-0.80;100.00
32492;BME280;20605;49.742;18.802;2023-02-28T00:29:37;98905.70;;;-0.78;100.00
32492;BME280;20605;49.742;18.802;2023-02-28T00:32:04;98901.98;;;-0.77;100.00
32492;BME280;20605;49.742;18.802;2023-02-28T00:34:30;98901.50;;;-0.76;100.00
32492;BME280;20605;49.742;18.802;2023-02-28T00:36:56;98903.52;;;-0.77;100.00
32492;BME280;20605;49.742;18.802;2023-02-28T00:39:22;98898.41;;;-0.77;100.00
32492;BME280;20605;49.742;18.802;2023-02-28T00:41:48;98893.16;;;-0.76;100.00
32492;BME280;20605;49.742;18.802;2023-02-28T00:44:13;98890.98;;;-0.74;100.00
32492;BME280;20605;49.742;18.802;2023-02-28T00:46:39;98887.05;;;-0.75;100.00
32492;BME280;20605;49.742;18.802;2023-02-28T00:49:05;98888.73;;;-0.75;100.00
32492;BME280;20605;49.742;18.802;2023-02-28T00:51:31;98886.32;;;-0.76;100.00
32492;BME280;20605;49.742;18.802;2023-02-28T00:53:57;98884.24;;;-0.77;100.00
32492;BME280;20605;49.742;18.802;2023-02-28T00:56:23;98879.94;;;-0.79;100.00
32492;BME280;20605;49.742;18.802;2023-02-28T00:58:49;98885.14;;;-0.81;100.00
32492;BME280;20605;49.742;18.802;2023-02-28T01:01:14;98879.93;;;-0.84;100.00
32492;BME280;20605;49.742;18.802;2023-02-28T01:03:40;98874.62;;;-0.90;100.00
32492;BME280;20605;49.742;18.802;2023-02-28T01:06:06;98880.21;;;-0.97;100.00
32492;BME280;20605;49.742;18.802;2023-02-28T01:08:32;98881.77;;;-1.02;100.00
32492;BME280;20605;49.742;18.802;2023-02-28T01:10:57;98880.50;;;-1.04;100.00
32492;BME280;20605;49.742;18.802;2023-02-28T01:13:23;98880.54;;;-1.09;100.00
32492;BME280;20605;49.742;18.802;2023-02-28T01:15:53;98880.67;;;-1.10;100.00
32492;BME280;20605;49.742;18.802;2023-02-28T01:18:21;98880.46;;;-1.06;100.00
32492;BME280;20605;49.742;18.802;2023-02-28T01:20:47;98878.58;;;-1.01;100.00
32492;BME280;20605;49.742;18.802;2023-02-28T01:23:13;98877.88;;;-0.95;100.00
32492;BME280;20605;49.742;18.802;2023-02-28T01:25:39;98875.45;;;-0.91;100.00
32492;BME280;20605;49.742;18.802;2023-02-28T01:28:05;98880.54;;;-0.87;100.00
32492;BME280;20605;49.742;18.802;2023-02-28T01:30:31;98876.86;;;-0.84;100.00
32492;BME280;20605;49.742;18.802;2023-02-28T01:32:57;98880.03;;;-0.87;100.00
32492;BME280;20605;49.742;18.802;2023-02-28T01:35:24;98876.02;;;-0.94;100.00
32492;BME280;20605;49.742;18.802;2023-02-28T01:37:50;98876.48;;;-1.02;100.00
32492;BME280;20605;49.742;18.802;2023-02-28T01:40:16;98872.17;;;-1.09;100.00
32492;BME280;20605;49.742;18.802;2023-02-28T01:42:42;98871.64;;;-1.15;100.00
32492;BME280;20605;49.742;18.802;2023-02-28T01:45:26;98870.73;;;-1.22;100.00
32492;BME280;20605;49.742;18.802;2023-02-28T01:47:57;98871.09;;;-1.27;100.00
32492;BME280;20605;49.742;18.802;2023-02-28T01:50:28;98867.09;;;-1.30;100.00
32492;BME280;20605;49.742;18.802;2023-02-28T01:52:58;98868.46;;;-1.36;100.00
32492;BME280;20605;49.742;18.802;2023-02-28T01:55:25;98862.86;;;-1.41;100.00
32492;BME280;20605;49.742;18.802;2023-02-28T01:58:00;98860.71;;;-1.44;100.00
32492;BME280;20605;49.742;18.802;2023-02-28T02:00:28;98857.79;;;-1.44;100.00
32492;BME280;20605;49.742;18.802;2023-02-28T02:03:04;98858.41;;;-1.46;100.00
32492;BME280;20605;49.742;18.802;2023-02-28T02:05:31;98850.80;;;-1.50;100.00
32492;BME280;20605;49.742;18.802;2023-02-28T02:08:02;98851.03;;;-1.53;100.00
32492;BME280;20605;49.742;18.802;2023-02-28T02:27:30;98850.95;;;-1.71;100.00
32492;BME280;20605;49.742;18.802;2023-02-28T02:35:30;98845.17;;;-1.81;100.00
32492;BME280;20605;49.742;18.802;2023-02-28T02:40:29;98850.30;;;-1.90;100.00
32492;BME280;20605;49.742;18.802;2023-02-28T02:43:06;98850.64;;;-1.95;100.00
32492;BME280;20605;49.742;18.802;2023-02-28T02:45:38;98848.54;;;-2.02;100.00
32492;BME280;20605;49.742;18.802;2023-02-28T02:48:09;98851.95;;;-2.06;100.00
32492;BME280;20605;49.742;18.802;2023-02-28T02:50:59;98856.85;;;-2.12;100.00
32492;BME280;20605;49.742;18.802;2023-02-28T02:53:36;98854.90;;;-2.19;100.00
32492;BME280;20605;49.742;18.802;2023-02-28T02:56:05;98859.64;;;-2.24;100.00
32492;BME280;20605;49.742;18.802;2023-02-28T02:58:35;98860.70;;;-2.28;100.00
32492;BME280;20605;49.742;18.802;2023-02-28T03:01:08;98862.25;;;-2.33;100.00
32492;BME280;20605;49.742;18.802;2023-02-28T03:03:37;98868.63;;;-2.35;100.00
32492;BME280;20605;49.742;18.802;2023-02-28T03:06:03;98867.65;;;-2.38;100.00
32492;BME280;20605;49.742;18.802;2023-02-28T03:08:36;98867.73;;;-2.41;100.00
32492;BME280;20605;49.742;18.802;2023-02-28T03:11:06;98871.52;;;-2.44;100.00
32492;BME280;20605;49.742;18.802;2023-02-28T03:14:06;98871.98;;;-2.46;100.00
32492;BME280;20605;49.742;18.802;2023-02-28T03:22:19;98873.77;;;-2.52;100.00
32492;BME280;20605;49.742;18.802;2023-02-28T03:27:42;98864.64;;;-2.55;100.00
32492;BME280;20605;49.742;18.802;2023-02-28T03:30:35;98867.39;;;-2.60;100.00
32492;BME280;20605;49.742;18.802;2023-02-28T03:33:24;98872.00;;;-2.64;100.00
32492;BME280;20605;49.742;18.802;2023-02-28T03:36:04;98876.71;;;-2.66;100.00
32492;BME280;20605;49.742;18.802;2023-02-28T03:41:13;98876.20;;;-2.70;100.00
32492;BME280;20605;49.742;18.802;2023-02-28T03:43:44;98880.73;;;-2.72;100.00
32492;BME280;20605;49.742;18.802;2023-02-28T03:46:17;98885.27;;;-2.73;100.00
32492;BME280;20605;49.742;18.802;2023-02-28T03:49:15;98884.55;;;-2.74;100.00
32492;BME280;20605;49.742;18.802;2023-02-28T03:51:42;98881.98;;;-2.74;100.00
32492;BME280;20605;49.742;18.802;2023-02-28T03:54:22;98888.94;;;-2.75;100.00
32492;BME280;20605;49.742;18.802;2023-02-28T03:57:00;98882.91;;;-2.77;100.00
32492;BME280;20605;49.742;18.802;2023-02-28T03:59:34;98875.32;;;-2.80;100.00
32492;BME280;20605;49.742;18.802;2023-02-28T04:02:01;98882.86;;;-2.82;100.00
32492;BME280;20605;49.742;18.802;2023-02-28T04:04:28;98887.20;;;-2.85;100.00
32492;BME280;20605;49.742;18.802;2023-02-28T04:07:02;98887.29;;;-2.87;100.00
32492;BME280;20605;49.742;18.802;2023-02-28T04:09:28;98887.83;;;-2.90;100.00
32492;BME280;20605;49.742;18.802;2023-02-28T04:11:54;98895.52;;;-2.93;100.00
32492;BME280;20605;49.742;18.802;2023-02-28T04:14:21;98895.64;;;-2.95;100.00
32492;BME280;20605;49.742;18.802;2023-02-28T04:16:48;98899.11;;;-2.98;100.00
32492;BME280;20605;49.742;18.802;2023-02-28T04:19:14;98899.19;;;-3.00;100.00
32492;BME280;20605;49.742;18.802;2023-02-28T04:21:43;98900.71;;;-3.04;100.00
32492;BME280;20605;49.742;18.802;2023-02-28T04:24:12;98901.47;;;-3.06;100.00
32492;BME280;20605;49.742;18.802;2023-02-28T04:26:41;98901.74;;;-3.08;100.00
32492;BME280;20605;49.742;18.802;2023-02-28T04:29:10;98900.98;;;-3.10;100.00
32492;BME280;20605;49.742;18.802;2023-02-28T04:31:38;98901.29;;;-3.11;100.00
32492;BME280;20605;49.742;18.802;2023-02-28T04:34:04;98900.55;;;-3.13;100.00
32492;BME280;20605;49.742;18.802;2023-02-28T04:36:30;98899.86;;;-3.17;100.00
32492;BME280;20605;49.742;18.802;2023-02-28T04:38:56;98895.77;;;-3.21;100.00
32492;BME280;20605;49.742;18.802;2023-02-28T04:41:22;98897.55;;;-3.23;100.00
32492;BME280;20605;49.742;18.802;2023-02-28T04:43:48;98897.65;;;-3.21;100.00
32492;BME280;20605;49.742;18.802;2023-02-28T04:46:14;98896.64;;;-3.17;100.00
32492;BME280;20605;49.742;18.802;2023-02-28T04:48:40;98898.70;;;-3.16;100.00
32492;BME280;20605;49.742;18.802;2023-02-28T04:51:12;98898.59;;;-3.19;100.00
32492;BME280;20605;49.742;18.802;2023-02-28T04:53:39;98897.63;;;-3.26;100.00
32492;BME280;20605;49.742;18.802;2023-02-28T04:56:07;98893.44;;;-3.33;100.00
32492;BME280;20605;49.742;18.802;2023-02-28T04:58:34;98894.48;;;-3.36;100.00
32492;BME280;20605;49.742;18.802;2023-02-28T05:01:06;98890.79;;;-3.40;100.00
32492;BME280;20605;49.742;18.802;2023-02-28T05:03:39;98896.99;;;-3.50;100.00
32492;BME280;20605;49.742;18.802;2023-02-28T05:06:09;98896.44;;;-3.59;100.00
32492;BME280;20605;49.742;18.802;2023-02-28T05:08:35;98897.98;;;-3.63;100.00
32492;BME280;20605;49.742;18.802;2023-02-28T05:11:01;98899.27;;;-3.69;100.00
32492;BME280;20605;49.742;18.802;2023-02-28T05:13:28;98901.03;;;-3.75;100.00
32492;BME280;20605;49.742;18.802;2023-02-28T05:15:54;98905.33;;;-3.82;100.00
32492;BME280;20605;49.742;18.802;2023-02-28T05:18:20;98906.92;;;-3.88;100.00
32492;BME280;20605;49.742;18.802;2023-02-28T05:20:46;98912.77;;;-3.91;100.00
32492;BME280;20605;49.742;18.802;2023-02-28T05:23:13;98905.65;;;-3.91;100.00
32492;BME280;20605;49.742;18.802;2023-02-28T05:25:39;98911.36;;;-3.92;100.00
32492;BME280;20605;49.742;18.802;2023-02-28T05:28:06;98908.21;;;-3.99;100.00
32492;BME280;20605;49.742;18.802;2023-02-28T05:30:32;98913.70;;;-4.01;100.00
32492;BME280;20605;49.742;18.802;2023-02-28T05:32:59;98913.57;;;-4.00;100.00
32492;BME280;20605;49.742;18.802;2023-02-28T05:35:25;98915.89;;;-3.98;100.00
32492;BME280;20605;49.742;18.802;2023-02-28T05:37:51;98918.96;;;-3.93;100.00
32492;BME280;20605;49.742;18.802;2023-02-28T05:40:17;98922.41;;;-3.92;100.00
32492;BME280;20605;49.742;18.802;2023-02-28T05:42:46;98930.57;;;-3.96;100.00
32492;BME280;20605;49.742;18.802;2023-02-28T05:45:12;98932.45;;;-3.99;100.00
32492;BME280;20605;49.742;18.802;2023-02-28T05:47:38;98939.52;;;-4.00;100.00
32492;BME280;20605;49.742;18.802;2023-02-28T05:50:04;98943.23;;;-4.01;100.00
32492;BME280;20605;49.742;18.802;2023-02-28T05:52:31;98946.64;;;-3.97;100.00
32492;BME280;20605;49.742;18.802;2023-02-28T05:54:57;98945.96;;;-3.97;100.00
32492;BME280;20605;49.742;18.802;2023-02-28T05:57:24;98948.91;;;-3.95;100.00
32492;BME280;20605;49.742;18.802;2023-02-28T05:59:50;98956.44;;;-3.98;100.00
32492;BME280;20605;49.742;18.802;2023-02-28T06:02:17;98954.35;;;-3.95;100.00
32492;BME280;20605;49.742;18.802;2023-02-28T06:04:44;98957.82;;;-3.93;100.00
32492;BME280;20605;49.742;18.802;2023-02-28T06:07:10;98954.54;;;-3.90;100.00
32492;BME280;20605;49.742;18.802;2023-02-28T06:09:36;98954.31;;;-3.83;100.00
32492;BME280;20605;49.742;18.802;2023-02-28T06:12:04;98958.80;;;-3.74;100.00
32492;BME280;20605;49.742;18.802;2023-02-28T06:14:33;98960.29;;;-3.59;100.00
32492;BME280;20605;49.742;18.802;2023-02-28T06:17:00;98959.68;;;-3.45;100.00
32492;BME280;20605;49.742;18.802;2023-02-28T06:19:26;98965.55;;;-3.35;100.00
32492;BME280;20605;49.742;18.802;2023-02-28T06:21:53;98967.33;;;-3.29;100.00
32492;BME280;20605;49.742;18.802;2023-02-28T06:24:20;98970.27;;;-3.27;100.00
32492;BME280;20605;49.742;18.802;2023-02-28T06:26:46;98972.34;;;-3.26;100.00
32492;BME280;20605;49.742;18.802;2023-02-28T06:29:14;98974.45;;;-3.29;100.00
32492;BME280;20605;49.742;18.802;2023-02-28T06:31:44;98976.00;;;-3.28;100.00
32492;BME280;20605;49.742;18.802;2023-02-28T06:34:11;98978.02;;;-3.24;100.00
32492;BME280;20605;49.742;18.802;2023-02-28T06:36:41;98976.88;;;-3.15;100.00
32492;BME280;20605;49.742;18.802;2023-02-28T06:39:08;98977.20;;;-3.08;100.00
32492;BME280;20605;49.742;18.802;2023-02-28T06:41:35;98973.19;;;-2.98;100.00
32492;BME280;20605;49.742;18.802;2023-02-28T06:44:14;98972.95;;;-2.86;100.00
32492;BME280;20605;49.742;18.802;2023-02-28T06:46:41;98975.13;;;-2.70;100.00
32492;BME280;20605;49.742;18.802;2023-02-28T06:49:08;98973.93;;;-2.52;100.00
32492;BME280;20605;49.742;18.802;2023-02-28T06:51:35;98969.77;;;-2.32;100.00
32492;BME280;20605;49.742;18.802;2023-02-28T06:54:02;98969.14;;;-2.12;100.00
32492;BME280;20605;49.742;18.802;2023-02-28T06:56:28;98972.06;;;-1.98;100.00
32492;BME280;20605;49.742;18.802;2023-02-28T06:58:54;98970.76;;;-1.82;100.00
32492;BME280;20605;49.742;18.802;2023-02-28T07:01:20;98971.84;;;-1.61;100.00
32492;BME280;20605;49.742;18.802;2023-02-28T07:03:48;98976.27;;;-1.37;100.00
32492;BME280;20605;49.742;18.802;2023-02-28T07:06:19;98981.30;;;-1.23;100.00
32492;BME280;20605;49.742;18.802;2023-02-28T07:08:45;98984.21;;;-0.97;100.00
32492;BME280;20605;49.742;18.802;2023-02-28T07:11:11;98985.84;;;-0.73;100.00
32492;BME280;20605;49.742;18.802;2023-02-28T07:13:36;98984.73;;;-0.49;100.00
32492;BME280;20605;49.742;18.802;2023-02-28T07:16:05;98986.86;;;0.00;100.00
32492;BME280;20605;49.742;18.802;2023-02-28T07:18:31;98984.33;;;0.70;100.00
32492;BME280;20605;49.742;18.802;2023-02-28T07:20:57;98982.81;;;1.78;100.00
32492;BME280;20605;49.742;18.802;2023-02-28T07:23:24;98976.59;;;3.44;100.00
32492;BME280;20605;49.742;18.802;2023-02-28T07:25:50;98971.91;;;5.11;100.00
32492;BME280;20605;49.742;18.802;2023-02-28T07:28:16;98974.27;;;5.98;100.00
32492;BME280;20605;49.742;18.802;2023-02-28T07:30:42;98973.02;;;7.31;100.00
32492;BME280;20605;49.742;18.802;2023-02-28T07:33:08;98970.33;;;9.08;98.31
32492;BME280;20605;49.742;18.802;2023-02-28T07:35:34;98966.85;;;10.99;96.89
32492;BME280;20605;49.742;18.802;2023-02-28T07:38:00;98964.61;;;12.93;95.34
32492;BME280;20605;49.742;18.802;2023-02-28T07:40:26;98965.73;;;14.93;93.43
32492;BME280;20605;49.742;18.802;2023-02-28T07:42:52;98959.11;;;16.62;87.79
32492;BME280;20605;49.742;18.802;2023-02-28T07:45:18;98957.02;;;17.76;84.83
32492;BME280;20605;49.742;18.802;2023-02-28T07:47:45;98956.83;;;18.75;80.65
32492;BME280;20605;49.742;18.802;2023-02-28T07:50:14;98952.05;;;19.63;76.58
32492;BME280;20605;49.742;18.802;2023-02-28T07:52:40;98955.73;;;19.95;72.85
32492;BME280;20605;49.742;18.802;2023-02-28T07:55:08;98951.58;;;20.10;69.85
32492;BME280;20605;49.742;18.802;2023-02-28T07:57:35;98949.59;;;20.48;69.89
32492;BME280;20605;49.742;18.802;2023-02-28T08:00:03;98946.33;;;21.01;69.52
32492;BME280;20605;49.742;18.802;2023-02-28T08:02:36;98947.52;;;21.87;66.43
32492;BME280;20605;49.742;18.802;2023-02-28T08:05:02;98944.33;;;22.35;64.46
32492;BME280;20605;49.742;18.802;2023-02-28T08:07:28;98941.76;;;22.98;63.23
32492;BME280;20605;49.742;18.802;2023-02-28T08:09:54;98941.95;;;23.63;62.41
32492;BME280;20605;49.742;18.802;2023-02-28T08:12:20;98940.98;;;24.06;59.47
32492;BME280;20605;49.742;18.802;2023-02-28T08:14:46;98939.70;;;24.30;55.45
32492;BME280;20605;49.742;18.802;2023-02-28T08:17:12;98936.83;;;23.41;51.22
32492;BME280;20605;49.742;18.802;2023-02-28T08:19:38;98941.13;;;22.80;48.58
32492;BME280;20605;49.742;18.802;2023-02-28T08:22:06;98937.98;;;21.55;48.81
32492;BME280;20605;49.742;18.802;2023-02-28T08:24:32;98936.35;;;21.82;51.00
32492;BME280;20605;49.742;18.802;2023-02-28T08:26:58;98938.13;;;22.43;49.86
32492;BME280;20605;49.742;18.802;2023-02-28T08:29:24;98938.56;;;22.73;49.99
32492;BME280;20605;49.742;18.802;2023-02-28T08:31:50;98942.91;;;23.40;49.71
32492;BME280;20605;49.742;18.802;2023-02-28T08:34:16;98942.19;;;23.46;45.75
32492;BME280;20605;49.742;18.802;2023-02-28T08:36:43;98945.95;;;22.77;44.26
32492;BME280;20605;49.742;18.802;2023-02-28T08:39:10;98948.30;;;22.27;45.50
32492;BME280;20605;49.742;18.802;2023-02-28T08:41:36;98948.27;;;22.71;46.32
32492;BME280;20605;49.742;18.802;2023-02-28T08:44:03;98946.01;;;23.07;45.34
32492;BME280;20605;49.742;18.802;2023-02-28T08:46:29;98945.26;;;23.42;45.28
32492;BME280;20605;49.742;18.802;2023-02-28T08:48:56;98942.77;;;23.98;45.14
32492;BME280;20605;49.742;18.802;2023-02-28T08:51:26;98941.30;;;24.42;42.80
32492;BME280;20605;49.742;18.802;2023-02-28T08:53:59;98938.86;;;24.16;42.06
32492;BME280;20605;49.742;18.802;2023-02-28T08:56:28;98934.73;;;23.91;42.12
32492;BME280;20605;49.742;18.802;2023-02-28T08:58:56;98932.42;;;23.83;41.72
32492;BME280;20605;49.742;18.802;2023-02-28T09:01:27;98934.41;;;23.56;40.44
32492;BME280;20605;49.742;18.802;2023-02-28T09:03:54;98939.41;;;23.39;40.81
32492;BME280;20605;49.742;18.802;2023-02-28T09:06:22;98937.23;;;23.56;41.05
32492;BME280;20605;49.742;18.802;2023-02-28T09:08:49;98932.13;;;23.64;38.47
32492;BME280;20605;49.742;18.802;2023-02-28T09:11:15;98928.89;;;23.48;39.52
32492;BME280;20605;49.742;18.802;2023-02-28T09:13:41;98923.05;;;23.59;38.58
32492;BME280;20605;49.742;18.802;2023-02-28T09:16:09;98928.78;;;23.63;39.18
32492;BME280;20605;49.742;18.802;2023-02-28T09:18:36;98931.54;;;23.49;37.37
32492;BME280;20605;49.742;18.802;2023-02-28T09:21:04;98936.69;;;23.40;37.97
32492;BME280;20605;49.742;18.802;2023-02-28T09:23:30;98930.89;;;23.53;37.16
32492;BME280;20605;49.742;18.802;2023-02-28T09:25:56;98934.35;;;23.09;35.93
32492;BME280;20605;49.742;18.802;2023-02-28T09:28:22;98935.02;;;22.76;36.37
32492;BME280;20605;49.742;18.802;2023-02-28T09:30:51;98934.98;;;22.65;36.65
32492;BME280;20605;49.742;18.802;2023-02-28T09:33:18;98935.23;;;22.61;36.11
32492;BME280;20605;49.742;18.802;2023-02-28T09:35:56;98932.52;;;22.42;35.93
32492;BME280;20605;49.742;18.802;2023-02-28T09:38:23;98930.87;;;22.37;35.87
32492;BME280;20605;49.742;18.802;2023-02-28T09:40:53;98933.91;;;22.43;35.80
32492;BME280;20605;49.742;18.802;2023-02-28T09:43:24;98936.46;;;22.70;35.57
32492;BME280;20605;49.742;18.802;2023-02-28T09:46:28;98934.91;;;22.00;33.57
32492;BME280;20605;49.742;18.802;2023-02-28T09:48:56;98932.07;;;20.94;34.18
32492;BME280;20605;49.742;18.802;2023-02-28T09:54:20;98932.13;;;20.38;33.85
32492;BME280;20605;49.742;18.802;2023-02-28T09:56:51;98935.86;;;20.08;34.95
32492;BME280;20605;49.742;18.802;2023-02-28T09:59:45;98929.33;;;20.35;34.93
32492;BME280;20605;49.742;18.802;2023-02-28T10:05:13;98935.16;;;19.66;34.53
32492;BME280;20605;49.742;18.802;2023-02-28T10:10:41;98936.55;;;15.76;35.20
32492;BME280;20605;49.742;18.802;2023-02-28T10:15:56;98941.12;;;13.42;37.67
32492;BME280;20605;49.742;18.802;2023-02-28T10:18:29;98946.19;;;12.27;38.75
32492;BME280;20605;49.742;18.802;2023-02-28T10:20:56;98947.94;;;10.96;39.93
32492;BME280;20605;49.742;18.802;2023-02-28T10:23:24;98948.43;;;9.93;41.73
32492;BME280;20605;49.742;18.802;2023-02-28T10:26:00;98948.41;;;9.22;42.91
32492;BME280;20605;49.742;18.802;2023-02-28T10:28:29;98940.08;;;8.43;44.02
32492;BME280;20605;49.742;18.802;2023-02-28T10:30:56;98945.38;;;7.67;45.39
32492;BME280;20605;49.742;18.802;2023-02-28T10:33:33;98948.00;;;7.14;45.85
32492;BME280;20605;49.742;18.802;2023-02-28T10:36:03;98945.54;;;6.72;46.64
32492;BME280;20605;49.742;18.802;2023-02-28T10:38:37;98945.50;;;6.44;47.87
32492;BME280;20605;49.742;18.802;2023-02-28T10:43:31;98940.48;;;5.95;49.13
32492;BME280;20605;49.742;18.802;2023-02-28T10:45:58;98936.33;;;5.66;51.28
32492;BME280;20605;49.742;18.802;2023-02-28T10:49:05;98942.09;;;5.26;51.98
32492;BME280;20605;49.742;18.802;2023-02-28T10:51:38;98935.59;;;4.88;54.18
32492;BME280;20605;49.742;18.802;2023-02-28T10:54:04;98933.46;;;4.64;55.48
32492;BME280;20605;49.742;18.802;2023-02-28T10:56:31;98931.39;;;4.47;55.69
32492;BME280;20605;49.742;18.802;2023-02-28T10:59:26;98932.28;;;4.34;56.84
32492;BME280;20605;49.742;18.802;2023-02-28T11:01:52;98925.41;;;4.20;57.85
32492;BME280;20605;49.742;18.802;2023-02-28T11:04:38;98922.39;;;4.11;58.27
32492;BME280;20605;49.742;18.802;2023-02-28T11:07:17;98924.17;;;4.02;59.53
32492;BME280;20605;49.742;18.802;2023-02-28T11:09:47;98926.98;;;3.91;60.71
32492;BME280;20605;49.742;18.802;2023-02-28T11:12:27;98920.36;;;3.84;61.03
32492;BME280;20605;49.742;18.802;2023-02-28T11:15:00;98920.13;;;3.78;62.31
32492;BME280;20605;49.742;18.802;2023-02-28T11:17:29;98920.71;;;3.71;63.07
32492;BME280;20605;49.742;18.802;2023-02-28T11:20:04;98911.16;;;3.64;63.82
32492;BME280;20605;49.742;18.802;2023-02-28T11:22:39;98912.60;;;3.55;64.43
32492;BME280;20605;49.742;18.802;2023-02-28T11:25:19;98913.56;;;3.51;64.58
32492;BME280;20605;49.742;18.802;2023-02-28T11:27:49;98909.63;;;3.52;64.81
32492;BME280;20605;49.742;18.802;2023-02-28T11:30:28;98907.84;;;3.46;65.42
32492;BME280;20605;49.742;18.802;2023-02-28T11:32:54;98906.22;;;3.41;65.64
32492;BME280;20605;49.742;18.802;2023-02-28T11:35:29;98904.64;;;3.40;66.12
32492;BME280;20605;49.742;18.802;2023-02-28T11:37:56;98908.37;;;3.48;66.77
32492;BME280;20605;49.742;18.802;2023-02-28T11:48:22;98910.40;;;3.57;67.46
32492;BME280;20605;49.742;18.802;2023-02-28T11:51:06;98907.21;;;3.64;68.15
32492;BME280;20605;49.742;18.802;2023-02-28T11:59:29;98908.52;;;3.58;70.00
32492;BME280;20605;49.742;18.802;2023-02-28T12:05:00;98903.10;;;3.64;69.80
32492;BME280;20605;49.742;18.802;2023-02-28T12:07:50;98901.01;;;3.62;70.51
32492;BME280;20605;49.742;18.802;2023-02-28T12:10:24;98903.88;;;3.71;70.92
32492;BME280;20605;49.742;18.802;2023-02-28T12:13:14;98896.51;;;3.72;71.02
32492;BME280;20605;49.742;18.802;2023-02-28T12:16:05;98895.98;;;3.72;70.95
32492;BME280;20605;49.742;18.802;2023-02-28T12:21:32;98889.34;;;3.89;71.35
32492;BME280;20605;49.742;18.802;2023-02-28T12:26:36;98890.29;;;3.82;70.95
32492;BME280;20605;49.742;18.802;2023-02-28T12:29:15;98889.95;;;3.82;71.33
32492;BME280;20605;49.742;18.802;2023-02-28T12:34:58;98887.78;;;3.90;72.07
32492;BME280;20605;49.742;18.802;2023-02-28T12:37:36;98885.74;;;3.92;72.18
32492;BME280;20605;49.742;18.802;2023-02-28T12:40:18;98884.83;;;3.85;72.61
32492;BME280;20605;49.742;18.802;2023-02-28T12:42:49;98884.72;;;3.94;72.76
32492;BME280;20605;49.742;18.802;2023-02-28T12:45:23;98884.39;;;3.95;73.05
32492;BME280;20605;49.742;18.802;2023-02-28T12:47:58;98885.28;;;3.98;73.60
32492;BME280;20605;49.742;18.802;2023-02-28T12:50:28;98882.98;;;3.90;74.04
32492;BME280;20605;49.742;18.802;2023-02-28T12:55:45;98883.17;;;3.77;74.81
32492;BME280;20605;49.742;18.802;2023-02-28T13:09:18;98881.26;;;3.49;76.67
32492;BME280;20605;49.742;18.802;2023-02-28T13:11:46;98873.84;;;3.46;76.65
32492;BME280;20605;49.742;18.802;2023-02-28T13:19:35;98873.60;;;3.54;76.90
32492;BME280;20605;49.742;18.802;2023-02-28T13:22:02;98866.65;;;3.48;77.28
32492;BME280;20605;49.742;18.802;2023-02-28T13:29:40;98862.04;;;3.63;77.34
32492;BME280;20605;49.742;18.802;2023-02-28T13:34:34;98855.53;;;3.65;77.18
32492;BME280;20605;49.742;18.802;2023-02-28T13:37:38;98858.07;;;3.62;77.28
32492;BME280;20605;49.742;18.802;2023-02-28T13:42:36;98859.02;;;3.69;77.58
32492;BME280;20605;49.742;18.802;2023-02-28T13:47:44;98861.84;;;3.74;77.61
32492;BME280;20605;49.742;18.802;2023-02-28T13:50:37;98855.45;;;3.71;77.71
32492;BME280;20605;49.742;18.802;2023-02-28T13:58:57;98854.80;;;3.61;78.24
32492;BME280;20605;49.742;18.802;2023-02-28T14:06:52;98838.54;;;3.51;78.22
32492;BME280;20605;49.742;18.802;2023-02-28T14:09:30;98832.77;;;3.44;78.18
32492;BME280;20605;49.742;18.802;2023-02-28T14:11:58;98834.27;;;3.40;78.54
32492;BME280;20605;49.742;18.802;2023-02-28T14:17:14;98832.44;;;3.45;78.74
32492;BME280;20605;49.742;18.802;2023-02-28T14:19:44;98835.39;;;3.47;78.67
32492;BME280;20605;49.742;18.802;2023-02-28T14:25:30;98831.56;;;3.56;78.46
32492;BME280;20605;49.742;18.802;2023-02-28T14:38:29;98829.87;;;3.32;78.50
32492;BME280;20605;49.742;18.802;2023-02-28T14:40:58;98831.42;;;3.33;78.55
32492;BME280;20605;49.742;18.802;2023-02-28T14:43:27;98832.39;;;3.28;78.63
32492;BME280;20605;49.742;18.802;2023-02-28T14:46:00;98832.67;;;3.24;78.89
32492;BME280;20605;49.742;18.802;2023-02-28T14:48:27;98839.14;;;3.20;79.12
32492;BME280;20605;49.742;18.802;2023-02-28T14:50:56;98839.79;;;3.18;79.27
32492;BME280;20605;49.742;18.802;2023-02-28T14:53:26;98836.35;;;3.17;78.94
32492;BME280;20605;49.742;18.802;2023-02-28T14:55:53;98839.38;;;3.13;79.24
32492;BME280;20605;49.742;18.802;2023-02-28T14:58:27;98839.52;;;3.11;79.24
32492;BME280;20605;49.742;18.802;2023-02-28T15:00:56;98841.70;;;3.08;79.61
32492;BME280;20605;49.742;18.802;2023-02-28T15:03:32;98843.35;;;3.04;79.73
32492;BME280;20605;49.742;18.802;2023-02-28T15:06:01;98840.51;;;2.97;79.94
32492;BME280;20605;49.742;18.802;2023-02-28T15:08:28;98845.84;;;2.87;80.14
32492;BME280;20605;49.742;18.802;2023-02-28T15:11:00;98847.39;;;2.76;80.48
32492;BME280;20605;49.742;18.802;2023-02-28T15:13:40;98847.29;;;2.70;80.44
32492;BME280;20605;49.742;18.802;2023-02-28T15:16:37;98848.27;;;2.67;80.67